Saint-Ours, Canada
Current Conditions -  °F | °C
As of 12:00 PM on Friday 28 Nov 2014 (Local Time) from CYHU Reporting Station
Light Snow Light Snow  
Wind Chill: 23°   Ceiling: 1500
Heat Index: 23°   Visibility: 9mi
Dew Point: 18°   Wind: 3mph
Humidity: 80%   Direction: 70°ENE
Pressure: 30.09"   Gusts: NA
Location:  45.88°N, 73.15°W
Report Text: CYHU 281700Z AUTO 07003KT 9SM -SN OVC015 M05/M08 A3009 RMK SLP192
Loading
Personal Weather Stations






























Interactive Weather Map New forecast layout! Learn more

10-Day Weather Forecast

Advertisements
Track Severe Weather on mobile